createdAt,value
2017-07-04T00:02:15.479Z,91.70
2017-07-04T00:04:44.627Z,91.80
2017-07-04T00:07:13.047Z,91.80
2017-07-04T00:09:42.205Z,92.30
2017-07-04T00:12:10.579Z,92.30
2017-07-04T00:14:38.963Z,92.30
2017-07-04T00:17:07.347Z,92.20
2017-07-04T00:19:35.401Z,92.30
2017-07-04T00:22:03.785Z,92.30
2017-07-04T00:24:32.209Z,92.60
2017-07-04T00:27:01.358Z,92.80
2017-07-04T00:29:29.753Z,92.70
2017-07-04T00:31:58.156Z,92.80
2017-07-04T00:34:26.547Z,92.90
2017-07-04T00:36:55.701Z,93.10
2017-07-04T00:39:24.073Z,93.10
2017-07-04T00:41:52.499Z,93.10
2017-07-04T00:44:21.642Z,93.40
2017-07-04T00:46:50.030Z,93.40
2017-07-04T00:49:18.443Z,93.50
2017-07-04T00:51:46.815Z,93.60
2017-07-04T00:54:15.221Z,93.80
2017-07-04T00:56:43.611Z,93.90
2017-07-04T00:59:12.012Z,94.00
2017-07-04T01:01:40.397Z,93.90
2017-07-04T01:04:08.796Z,94.00
2017-07-04T01:06:37.190Z,94.30
2017-07-04T01:09:05.264Z,94.40
2017-07-04T01:11:34.427Z,94.90
2017-07-04T01:14:02.813Z,94.70
2017-07-04T01:16:31.428Z,94.80
2017-07-04T01:18:59.815Z,94.90
2017-07-04T01:21:28.956Z,95.60
2017-07-04T01:23:57.346Z,95.60
2017-07-04T01:26:25.739Z,95.60
2017-07-04T01:28:54.135Z,95.80
2017-07-04T01:31:23.295Z,95.80
2017-07-04T01:33:51.709Z,95.80
2017-07-04T01:36:20.898Z,96.00
2017-07-04T01:38:49.288Z,96.00
2017-07-04T01:41:18.458Z,96.30
2017-07-04T01:43:46.847Z,96.30
2017-07-04T01:46:15.237Z,96.40
2017-07-04T01:48:43.625Z,96.40
2017-07-04T01:51:11.680Z,96.60
2017-07-04T01:53:40.856Z,96.90
2017-07-04T01:56:09.229Z,96.90
2017-07-04T01:58:37.629Z,96.90
2017-07-04T02:01:06.010Z,97.10
2017-07-04T02:03:34.399Z,97.20
2017-07-04T02:06:03.552Z,97.40
2017-07-04T02:08:31.967Z,97.40
2017-07-04T02:11:01.142Z,97.50
2017-07-04T02:13:29.525Z,97.50
2017-07-04T02:15:57.920Z,97.40
2017-07-04T02:18:27.092Z,97.60
2017-07-04T02:20:54.789Z,97.60
2017-07-04T02:23:23.203Z,97.60
2017-07-04T02:25:51.612Z,97.60
2017-07-04T02:28:19.997Z,97.70
2017-07-04T02:30:48.376Z,97.80
2017-07-04T02:33:16.780Z,97.80
2017-07-04T02:35:45.930Z,97.90
2017-07-04T02:38:14.342Z,97.90
2017-07-04T02:40:42.743Z,97.80
2017-07-04T02:43:11.166Z,97.80
2017-07-04T02:45:39.566Z,97.80
2017-07-04T02:48:07.955Z,97.70
2017-07-04T02:50:36.378Z,97.70
2017-07-04T02:53:04.764Z,97.60
2017-07-04T02:55:33.153Z,97.50
2017-07-04T02:58:01.614Z,97.30
2017-07-04T03:00:30.019Z,97.50
2017-07-04T03:02:58.412Z,97.50
2017-07-04T03:05:26.803Z,97.50
2017-07-04T03:07:55.200Z,97.50
2017-07-04T03:10:23.590Z,97.50
2017-07-04T03:12:52.026Z,97.60
2017-07-04T03:15:20.420Z,97.60
2017-07-04T03:17:49.604Z,97.70
2017-07-04T03:20:17.993Z,97.70
2017-07-04T03:22:47.147Z,98.10
2017-07-04T03:25:15.553Z,97.70
2017-07-04T03:27:43.929Z,97.80
2017-07-04T03:30:12.347Z,97.80
2017-07-04T03:32:40.730Z,97.80
2017-07-04T03:35:09.141Z,97.80
2017-07-04T03:37:37.528Z,97.80
2017-07-04T03:40:05.903Z,97.80
2017-07-04T03:42:34.291Z,97.80
2017-07-04T03:45:02.696Z,97.90
2017-07-04T03:47:31.087Z,98.10
2017-07-04T03:50:00.243Z,97.70
2017-07-04T03:52:28.645Z,97.60
2017-07-04T03:54:57.016Z,97.70
2017-07-04T03:57:25.412Z,97.80
2017-07-04T03:59:54.583Z,97.70
2017-07-04T04:02:22.988Z,97.70
2017-07-04T04:04:52.153Z,97.80
2017-07-04T04:07:20.545Z,97.80
2017-07-04T04:09:48.961Z,97.90
2017-07-04T04:12:16.995Z,98.00
2017-07-04T04:14:45.380Z,98.00
2017-07-04T04:17:14.535Z,98.40
2017-07-04T04:19:42.925Z,98.10
2017-07-04T04:22:11.333Z,98.00
2017-07-04T04:24:40.478Z,98.20
2017-07-04T04:27:08.888Z,98.20
2017-07-04T04:29:37.291Z,98.10
2017-07-04T04:32:05.337Z,98.10
2017-07-04T04:34:33.741Z,98.10
2017-07-04T04:37:02.907Z,98.00
2017-07-04T04:39:31.316Z,98.00
2017-07-04T04:41:59.721Z,97.90
2017-07-04T04:44:28.123Z,97.70
2017-07-04T04:46:56.514Z,97.60
2017-07-04T04:49:24.901Z,97.60
2017-07-04T04:51:53.306Z,97.70
2017-07-04T04:54:22.471Z,97.30
2017-07-04T04:56:50.865Z,97.60
2017-07-04T04:59:19.280Z,97.20
2017-07-04T05:01:47.689Z,97.00
2017-07-04T05:04:16.063Z,97.00
2017-07-04T05:06:44.441Z,96.70
2017-07-04T05:09:12.851Z,96.90
2017-07-04T05:11:41.261Z,97.00
2017-07-04T05:14:10.430Z,96.60
2017-07-04T05:16:38.850Z,96.50
2017-07-04T05:19:07.363Z,96.50
2017-07-04T05:21:35.747Z,96.20
2017-07-04T05:24:03.786Z,96.00
2017-07-04T05:26:32.185Z,96.20
2017-07-04T05:29:00.565Z,95.90
2017-07-04T05:31:28.969Z,95.90
2017-07-04T05:33:57.350Z,95.30
2017-07-04T05:36:25.748Z,95.70
2017-07-04T05:38:54.915Z,96.00
2017-07-04T05:41:23.305Z,95.90
2017-07-04T05:43:51.708Z,95.60
2017-07-04T05:46:20.107Z,95.20
2017-07-04T05:48:48.526Z,95.20
2017-07-04T05:51:16.906Z,95.50
2017-07-04T05:53:45.296Z,95.60
2017-07-04T05:56:13.685Z,95.50
2017-07-04T05:58:42.844Z,96.10
2017-07-04T06:01:11.261Z,95.80
2017-07-04T06:03:40.417Z,95.90
2017-07-04T06:06:08.828Z,95.80
2017-07-04T06:08:37.221Z,95.50
2017-07-04T06:11:06.386Z,95.60
2017-07-04T06:13:34.796Z,95.50
2017-07-04T06:16:03.966Z,94.10
2017-07-04T06:18:32.373Z,94.10
2017-07-04T06:21:01.534Z,94.80
2017-07-04T06:23:29.963Z,94.50
2017-07-04T06:25:58.356Z,94.10
2017-07-04T06:28:26.740Z,93.60
2017-07-04T06:30:55.146Z,94.10
2017-07-04T06:33:23.560Z,93.10
2017-07-04T06:35:51.987Z,93.10
2017-07-04T06:38:20.372Z,92.80
2017-07-04T06:40:48.792Z,93.00
2017-07-04T06:43:17.748Z,91.80
2017-07-04T06:45:46.141Z,91.50
2017-07-04T06:48:14.559Z,91.00
2017-07-04T06:50:42.950Z,90.60
2017-07-04T06:53:11.356Z,90.40
2017-07-04T06:55:39.756Z,90.00
2017-07-04T06:58:08.165Z,89.60
2017-07-04T07:00:36.566Z,90.00
2017-07-04T07:03:04.979Z,90.50
2017-07-04T07:05:33.389Z,89.80
2017-07-04T07:08:02.543Z,90.60
2017-07-04T07:10:30.963Z,90.20
2017-07-04T07:12:59.576Z,89.70
2017-07-04T07:15:28.015Z,89.30
2017-07-04T07:17:56.405Z,88.60
2017-07-04T07:20:25.556Z,88.20
2017-07-04T07:22:53.956Z,87.80
2017-07-04T07:25:22.373Z,89.40
2017-07-04T07:27:50.798Z,89.70
2017-07-04T07:30:19.212Z,85.80
2017-07-04T07:32:47.617Z,85.90
2017-07-04T07:35:16.122Z,88.30
2017-07-04T07:37:44.540Z,88.80
2017-07-04T07:40:12.994Z,90.10
2017-07-04T07:42:41.398Z,87.60
2017-07-04T07:45:09.445Z,88.00
2017-07-04T07:47:37.845Z,88.50
2017-07-04T07:50:06.221Z,86.50
2017-07-04T07:52:34.639Z,87.40
2017-07-04T07:55:03.037Z,85.70
2017-07-04T07:57:31.418Z,84.30
2017-07-04T07:59:59.817Z,82.30
2017-07-04T08:02:28.205Z,82.00
2017-07-04T08:04:56.617Z,79.80
2017-07-04T08:07:25.012Z,80.50
2017-07-04T08:09:53.416Z,78.50
2017-07-04T08:12:21.827Z,79.10
2017-07-04T08:14:50.214Z,79.80
2017-07-04T08:17:18.678Z,79.40
2017-07-04T08:19:47.076Z,78.80
2017-07-04T08:22:16.241Z,82.40
2017-07-04T08:24:44.632Z,82.30
2017-07-04T08:27:13.021Z,83.70
2017-07-04T08:29:41.424Z,81.10
2017-07-04T08:32:09.824Z,77.60
2017-07-04T08:34:38.217Z,77.70
2017-07-04T08:37:06.611Z,77.90
2017-07-04T08:39:35.006Z,79.80
2017-07-04T08:42:03.410Z,81.20
2017-07-04T08:44:32.585Z,87.20
2017-07-04T08:47:00.972Z,87.00
2017-07-04T08:49:29.361Z,85.90
2017-07-04T08:51:58.520Z,84.30
2017-07-04T08:54:26.606Z,84.20
2017-07-04T08:56:54.989Z,82.00
2017-07-04T08:59:23.370Z,79.60
2017-07-04T09:01:51.782Z,78.30
2017-07-04T09:04:20.221Z,79.30
2017-07-04T09:06:48.625Z,79.60
2017-07-04T09:09:17.795Z,80.70
2017-07-04T09:11:46.200Z,80.70
2017-07-04T09:14:15.474Z,82.90
2017-07-04T09:16:43.901Z,82.90
2017-07-04T09:19:12.325Z,81.50
2017-07-04T09:21:40.714Z,83.40
2017-07-04T09:24:09.104Z,83.60
2017-07-04T09:26:37.522Z,77.80
2017-07-04T09:29:05.930Z,78.20
2017-07-04T09:31:34.331Z,81.00
2017-07-04T09:34:02.399Z,82.40
2017-07-04T09:36:31.574Z,84.00
2017-07-04T09:39:00.670Z,83.70
2017-07-04T09:41:29.057Z,84.90
2017-07-04T09:43:57.179Z,83.70
2017-07-04T09:46:25.624Z,86.30
2017-07-04T09:48:54.795Z,82.10
2017-07-04T09:51:23.211Z,82.10
2017-07-04T09:53:51.606Z,81.10
2017-07-04T09:56:20.022Z,84.40
2017-07-04T09:58:48.425Z,82.10
2017-07-04T10:01:17.609Z,82.90
2017-07-04T10:03:46.162Z,83.40
2017-07-04T10:06:14.576Z,82.30
2017-07-04T10:08:42.997Z,81.30
2017-07-04T10:11:11.393Z,80.60
2017-07-04T10:13:39.796Z,80.80
2017-07-04T10:16:08.208Z,80.50
2017-07-04T10:18:37.370Z,80.80
2017-07-04T10:21:05.997Z,80.80
2017-07-04T10:23:34.432Z,80.90
2017-07-04T10:26:02.823Z,75.80
2017-07-04T10:28:31.030Z,79.60
2017-07-04T10:30:59.418Z,79.30
2017-07-04T10:33:27.872Z,79.90
2017-07-04T10:35:56.274Z,83.30
2017-07-04T10:38:25.426Z,79.70
2017-07-04T10:40:53.832Z,79.80
2017-07-04T10:43:22.230Z,78.60
2017-07-04T10:45:50.710Z,78.50
2017-07-04T10:48:19.107Z,78.60
2017-07-04T10:50:47.509Z,78.40
2017-07-04T10:53:15.954Z,78.40
2017-07-04T10:55:44.333Z,79.60
2017-07-04T10:58:12.753Z,78.90
2017-07-04T11:00:41.146Z,79.50
2017-07-04T11:03:09.546Z,79.30
2017-07-04T11:05:38.789Z,77.80
2017-07-04T11:08:07.187Z,77.90
2017-07-04T11:10:35.600Z,77.60
2017-07-04T11:13:04.126Z,77.30
2017-07-04T11:15:32.524Z,78.00
2017-07-04T11:18:00.936Z,78.80
2017-07-04T11:20:29.354Z,77.60
2017-07-04T11:22:57.762Z,74.40
2017-07-04T11:25:26.166Z,73.00
2017-07-04T11:27:54.568Z,75.10
2017-07-04T11:30:23.085Z,71.20
2017-07-04T11:32:51.471Z,71.40
2017-07-04T11:35:19.946Z,71.30
2017-07-04T11:37:48.660Z,71.10
2017-07-04T11:40:16.364Z,72.60
2017-07-04T11:42:44.834Z,75.10
2017-07-04T11:45:13.234Z,74.60
2017-07-04T11:47:41.997Z,73.80
2017-07-04T11:50:10.401Z,75.20
2017-07-04T11:52:38.779Z,70.70
2017-07-04T11:55:07.180Z,73.10
2017-07-04T11:57:35.580Z,74.00
2017-07-04T12:00:03.978Z,73.50
2017-07-04T12:02:32.442Z,75.30
2017-07-04T12:05:00.839Z,75.30
2017-07-04T12:07:29.297Z,76.50
2017-07-04T12:09:57.690Z,75.90
2017-07-04T12:12:26.081Z,74.30
2017-07-04T12:14:55.262Z,75.60
2017-07-04T12:17:24.406Z,75.80
2017-07-04T12:19:52.916Z,75.80
2017-07-04T12:22:21.306Z,74.90
2017-07-04T12:24:49.704Z,79.20
2017-07-04T12:27:18.117Z,75.00
2017-07-04T12:29:46.533Z,75.30
2017-07-04T12:32:15.078Z,73.90
2017-07-04T12:34:43.476Z,73.70
2017-07-04T12:37:11.917Z,72.00
2017-07-04T12:39:40.419Z,66.20
2017-07-04T12:42:08.815Z,68.00
2017-07-04T12:44:37.568Z,69.00
2017-07-04T12:47:05.968Z,67.60
2017-07-04T12:49:34.383Z,69.40
2017-07-04T12:52:02.791Z,69.10
2017-07-04T12:54:31.185Z,65.50
2017-07-04T12:56:59.873Z,62.50
2017-07-04T12:59:28.248Z,64.00
2017-07-04T13:01:56.652Z,62.10
2017-07-04T13:04:25.055Z,61.80
2017-07-04T13:06:53.458Z,64.70
2017-07-04T13:09:22.615Z,68.60
2017-07-04T13:11:51.170Z,68.50
2017-07-04T13:14:19.560Z,70.30
2017-07-04T13:16:47.959Z,69.60
2017-07-04T13:19:16.967Z,66.20
2017-07-04T13:21:45.371Z,68.00
2017-07-04T13:24:13.770Z,67.20
2017-07-04T13:26:42.445Z,67.10
2017-07-04T13:29:10.839Z,66.70
2017-07-04T13:31:39.229Z,66.50
2017-07-04T13:34:07.305Z,66.10
2017-07-04T13:36:35.721Z,68.30
2017-07-04T13:39:04.211Z,66.90
2017-07-04T13:41:33.515Z,66.40
2017-07-04T13:44:02.674Z,65.90
2017-07-04T13:46:31.078Z,65.70
2017-07-04T13:48:59.677Z,70.70
2017-07-04T13:51:28.834Z,69.60
2017-07-04T13:53:57.247Z,69.60
2017-07-04T13:56:25.669Z,70.60
2017-07-04T13:58:54.174Z,71.00
2017-07-04T14:01:22.571Z,70.40
2017-07-04T14:03:50.984Z,67.90
2017-07-04T14:06:19.378Z,69.60
2017-07-04T14:08:47.791Z,69.50
2017-07-04T14:11:17.143Z,70.10
2017-07-04T14:13:45.550Z,70.20
2017-07-04T14:16:13.950Z,71.20
2017-07-04T14:18:42.404Z,71.00
2017-07-04T14:21:10.466Z,70.50
2017-07-04T14:23:38.855Z,69.10
2017-07-04T14:26:07.267Z,68.00
2017-07-04T14:28:34.980Z,69.00
2017-07-04T14:31:03.375Z,71.90
2017-07-04T14:33:32.222Z,71.60
2017-07-04T14:36:00.627Z,69.00
2017-07-04T14:38:29.053Z,67.00
2017-07-04T14:40:57.464Z,68.10
2017-07-04T14:43:25.891Z,67.10
2017-07-04T14:45:53.938Z,67.50
2017-07-04T14:48:22.385Z,69.10
2017-07-04T14:50:51.539Z,68.90
2017-07-04T14:53:19.957Z,69.00
2017-07-04T14:55:48.545Z,68.90
2017-07-04T14:58:16.962Z,67.80
2017-07-04T15:00:45.354Z,67.70
2017-07-04T15:03:13.785Z,67.70
2017-07-04T15:05:42.250Z,67.60
2017-07-04T15:08:10.678Z,67.20
2017-07-04T15:10:39.127Z,67.40
2017-07-04T15:13:07.549Z,67.80
2017-07-04T15:15:35.949Z,67.10
2017-07-04T15:18:04.464Z,67.40
2017-07-04T15:20:32.894Z,67.20
2017-07-04T15:23:01.333Z,67.10
2017-07-04T15:25:29.934Z,68.20
2017-07-04T15:27:58.322Z,69.10
2017-07-04T15:30:26.711Z,67.50
2017-07-04T15:32:56.018Z,67.80
2017-07-04T15:35:24.495Z,67.70
2017-07-04T15:37:52.879Z,68.00
2017-07-04T15:40:21.709Z,67.00
2017-07-04T15:42:50.100Z,67.20
2017-07-04T15:45:18.497Z,68.40
2017-07-04T15:47:47.135Z,68.20
2017-07-04T15:50:16.302Z,65.90
2017-07-04T15:52:44.700Z,65.70
2017-07-04T15:55:13.143Z,65.70
2017-07-04T15:57:41.544Z,66.50
2017-07-04T16:00:09.951Z,66.20
2017-07-04T16:02:38.368Z,66.50
2017-07-04T16:05:06.767Z,66.30
2017-07-04T16:07:35.187Z,66.60
2017-07-04T16:10:03.821Z,65.90
2017-07-04T16:12:32.213Z,66.20
2017-07-04T16:15:00.623Z,65.70
2017-07-04T16:17:29.857Z,65.90
2017-07-04T16:19:58.234Z,65.70
2017-07-04T16:22:26.709Z,66.10
2017-07-04T16:24:55.281Z,66.00
2017-07-04T16:27:23.684Z,67.50
2017-07-04T16:29:52.074Z,65.60
2017-07-04T16:32:20.503Z,66.90
2017-07-04T16:34:48.899Z,68.80
2017-07-04T16:37:17.301Z,68.10
2017-07-04T16:39:45.947Z,67.90
2017-07-04T16:42:14.338Z,68.50
2017-07-04T16:44:43.206Z,67.40
2017-07-04T16:47:11.792Z,66.50
2017-07-04T16:49:40.210Z,66.90
2017-07-04T16:52:08.611Z,66.30
2017-07-04T16:54:37.154Z,66.20
2017-07-04T16:57:05.550Z,68.00
2017-07-04T16:59:33.955Z,67.50
2017-07-04T17:02:02.574Z,67.00
2017-07-04T17:04:31.034Z,66.90
2017-07-04T17:06:59.442Z,68.20
2017-07-04T17:09:27.878Z,67.90
2017-07-04T17:11:56.286Z,67.60
2017-07-04T17:14:24.674Z,67.60
2017-07-04T17:16:53.106Z,67.10
2017-07-04T17:19:21.494Z,68.00
2017-07-04T17:21:49.882Z,66.30
2017-07-04T17:24:18.407Z,67.40
2017-07-04T17:26:46.831Z,67.10
2017-07-04T17:29:15.234Z,66.60
2017-07-04T17:31:46.605Z,66.00
2017-07-04T17:34:14.998Z,66.00
2017-07-04T17:36:43.057Z,66.50
2017-07-04T17:39:11.483Z,66.00
2017-07-04T17:41:39.897Z,67.30
2017-07-04T17:44:08.321Z,67.10
2017-07-04T17:46:36.838Z,68.50
2017-07-04T17:49:05.270Z,68.50
2017-07-04T17:51:33.745Z,67.40
2017-07-04T17:54:02.162Z,68.00
2017-07-04T17:56:30.573Z,67.80
2017-07-04T17:58:59.081Z,68.20
2017-07-04T18:01:27.731Z,67.30
2017-07-04T18:03:55.980Z,66.60
2017-07-04T18:06:25.137Z,68.10
2017-07-04T18:08:53.593Z,67.60
2017-07-04T18:11:21.998Z,67.20
2017-07-04T18:13:50.377Z,67.40
2017-07-04T18:16:18.580Z,67.10
2017-07-04T18:18:46.977Z,67.80
2017-07-04T18:21:15.363Z,68.30
2017-07-04T18:23:43.967Z,68.10
2017-07-04T18:31:59.516Z,69.30
2017-07-04T18:34:28.038Z,69.20
2017-07-04T18:36:57.205Z,68.80
2017-07-04T18:39:25.625Z,68.70
2017-07-04T18:41:54.186Z,67.80
2017-07-04T18:44:23.359Z,67.60
2017-07-04T18:46:51.736Z,67.60
2017-07-04T18:49:20.468Z,68.00
2017-07-04T18:51:48.889Z,68.10
2017-07-04T18:54:17.338Z,68.70
2017-07-04T18:56:46.668Z,69.40
2017-07-04T18:59:15.093Z,69.40
2017-07-04T19:01:43.490Z,69.10
2017-07-04T19:04:12.208Z,69.20
2017-07-04T19:06:40.830Z,70.00
2017-07-04T19:09:10.073Z,69.80
2017-07-04T19:11:38.612Z,70.60
2017-07-04T19:14:07.004Z,69.50
2017-07-04T19:16:35.393Z,70.00
2017-07-04T19:19:03.854Z,70.00
2017-07-04T19:21:32.269Z,69.30
2017-07-04T19:24:00.752Z,70.10
2017-07-04T19:26:29.196Z,70.50
2017-07-04T19:28:59.361Z,71.00
2017-07-04T19:31:27.753Z,71.70
2017-07-04T19:33:56.382Z,71.90
2017-07-04T19:36:25.633Z,73.00
2017-07-04T19:38:54.022Z,73.00
2017-07-04T19:41:22.531Z,72.30
2017-07-04T19:43:51.610Z,72.00
2017-07-04T19:46:20.080Z,72.60
2017-07-04T19:48:48.905Z,72.20
2017-07-04T19:51:17.295Z,72.30
2017-07-04T19:53:45.717Z,73.10
2017-07-04T19:56:14.174Z,73.80
2017-07-04T19:58:42.579Z,74.00
2017-07-04T20:01:11.132Z,74.30
2017-07-04T20:03:39.816Z,73.50
2017-07-04T20:06:08.980Z,72.90
2017-07-04T20:08:37.417Z,72.80
2017-07-04T20:11:05.837Z,72.50
2017-07-04T20:13:34.242Z,73.00
2017-07-04T20:16:02.652Z,73.20
2017-07-04T20:18:31.349Z,74.70
2017-07-04T20:20:59.741Z,75.00
2017-07-04T20:23:28.139Z,76.70
2017-07-04T20:25:57.573Z,77.10
2017-07-04T20:28:25.973Z,76.70
2017-07-04T20:30:54.394Z,76.90
2017-07-04T20:33:22.888Z,77.80
2017-07-04T20:35:52.086Z,77.80
2017-07-04T20:38:20.492Z,77.80
2017-07-04T20:40:49.064Z,78.20
2017-07-04T20:43:17.482Z,79.10
2017-07-04T20:45:45.870Z,79.40
2017-07-04T20:48:14.457Z,79.10
2017-07-04T20:50:42.993Z,79.40
2017-07-04T20:53:11.510Z,79.20
2017-07-04T20:55:40.365Z,79.00
2017-07-04T20:58:08.774Z,79.60
2017-07-04T21:00:37.178Z,80.90
2017-07-04T21:03:05.720Z,82.70
2017-07-04T21:05:34.124Z,83.30
2017-07-04T21:08:02.498Z,85.10
2017-07-04T21:10:31.071Z,85.80
2017-07-04T21:12:59.488Z,85.90
2017-07-04T21:15:27.940Z,86.20
2017-07-04T21:17:58.560Z,86.60
2017-07-04T21:20:26.985Z,87.20
2017-07-04T21:22:56.218Z,89.20
2017-07-04T21:25:24.655Z,89.00
2017-07-04T21:27:53.896Z,88.70
2017-07-04T21:30:22.313Z,88.60
2017-07-04T21:32:50.704Z,88.80
2017-07-04T21:35:19.154Z,88.50
2017-07-04T21:37:47.741Z,88.10
2017-07-04T21:40:16.143Z,86.70
2017-07-04T21:42:44.564Z,87.10
2017-07-04T21:45:13.127Z,86.60
2017-07-04T21:47:41.537Z,87.50
2017-07-04T21:50:09.925Z,86.90
2017-07-04T21:52:38.476Z,87.50
2017-07-04T21:55:06.880Z,87.10
2017-07-04T21:57:35.300Z,87.30
2017-07-04T22:00:03.532Z,87.20
2017-07-04T22:02:31.951Z,87.50
2017-07-04T22:05:00.353Z,87.90
2017-07-04T22:07:28.958Z,88.00
2017-07-04T22:09:58.106Z,88.00
2017-07-04T22:12:26.506Z,88.00
2017-07-04T22:14:55.125Z,88.00
2017-07-04T22:17:23.516Z,88.40
2017-07-04T22:19:51.905Z,88.60
2017-07-04T22:22:20.550Z,88.90
2017-07-04T22:24:49.704Z,90.30
2017-07-04T22:27:18.117Z,90.30
2017-07-04T22:29:47.647Z,90.80
2017-07-04T22:32:16.058Z,90.80
2017-07-04T22:34:44.469Z,90.60
2017-07-04T22:37:12.877Z,90.30
2017-07-04T22:39:42.018Z,90.30
2017-07-04T22:42:10.438Z,90.30
2017-07-04T22:44:39.782Z,91.20
2017-07-04T22:47:08.190Z,91.20
2017-07-04T22:49:36.596Z,91.50
2017-07-04T22:52:05.885Z,91.80
2017-07-04T22:54:34.275Z,91.40
2017-07-04T22:57:03.431Z,91.70
2017-07-04T22:59:31.880Z,91.60
2017-07-04T23:02:00.270Z,91.90
2017-07-04T23:04:28.660Z,91.60
2017-07-04T23:06:57.076Z,91.30
2017-07-04T23:09:25.475Z,91.30
2017-07-04T23:11:54.635Z,91.30
2017-07-04T23:14:23.072Z,91.30
2017-07-04T23:16:51.465Z,91.20
2017-07-04T23:19:19.842Z,91.20
2017-07-04T23:21:48.252Z,90.80
2017-07-04T23:24:16.627Z,90.60
2017-07-04T23:26:45.025Z,90.50
2017-07-04T23:29:13.481Z,90.40
2017-07-04T23:31:41.873Z,90.40
2017-07-04T23:34:10.275Z,90.50
2017-07-04T23:36:39.457Z,90.40
2017-07-04T23:39:07.857Z,90.50
2017-07-04T23:41:37.019Z,91.00
2017-07-04T23:44:05.727Z,91.00
2017-07-04T23:46:34.304Z,91.10
2017-07-04T23:49:02.763Z,91.40
2017-07-04T23:51:31.365Z,91.40
2017-07-04T23:53:59.773Z,91.60
2017-07-04T23:56:28.927Z,91.90
2017-07-04T23:58:57.581Z,91.80
